createdAt,value
2023-02-27T00:09:45.941Z,69.70
2023-02-27T00:19:44.805Z,70.20
2023-02-27T00:29:43.717Z,70.60
2023-02-27T00:39:42.870Z,70.80
2023-02-27T00:49:42.314Z,71.00
2023-02-27T00:59:41.803Z,71.00
2023-02-27T01:09:41.335Z,71.20
2023-02-27T01:19:39.881Z,71.10
2023-02-27T01:29:38.946Z,71.20
2023-02-27T01:39:39.685Z,71.40
2023-02-27T01:49:39.459Z,71.60
2023-02-27T02:10:41.871Z,72.00
2023-02-27T02:20:40.969Z,72.50
2023-02-27T02:30:40.002Z,72.90
2023-02-27T02:40:38.796Z,73.20
2023-02-27T02:50:37.832Z,73.30
2023-02-27T03:00:37.196Z,73.50
2023-02-27T03:10:36.087Z,73.70
2023-02-27T03:20:35.313Z,73.80
2023-02-27T03:30:33.898Z,73.90
2023-02-27T03:40:34.779Z,73.90
2023-02-27T03:50:34.549Z,73.80
2023-02-27T04:00:34.231Z,74.10
2023-02-27T04:10:32.910Z,74.70
2023-02-27T04:20:31.947Z,75.00
2023-02-27T04:30:31.002Z,75.20
2023-02-27T04:40:30.053Z,75.00
2023-02-27T04:50:28.904Z,75.20
2023-02-27T05:00:27.886Z,75.40
2023-02-27T05:10:27.043Z,75.60
2023-02-27T05:20:27.387Z,76.00
2023-02-27T05:30:26.947Z,76.10
2023-02-27T05:40:25.975Z,76.30
2023-02-27T05:50:25.014Z,76.40
2023-02-27T06:00:24.081Z,76.70
2023-02-27T06:10:23.212Z,76.80
2023-02-27T06:20:21.957Z,77.10
2023-02-27T06:30:20.999Z,77.40
2023-02-27T06:40:20.039Z,77.50
2023-02-27T06:50:19.086Z,77.70
2023-02-27T07:00:17.988Z,77.90
2023-02-27T07:10:17.221Z,78.50
2023-02-27T07:20:15.917Z,78.90
2023-02-27T07:30:15.055Z,78.80
2023-02-27T07:40:14.483Z,79.10
2023-02-27T07:50:14.064Z,79.50
2023-02-27T08:00:12.895Z,79.60
2023-02-27T08:10:12.080Z,79.80
2023-02-27T08:20:11.505Z,80.10
2023-02-27T08:30:10.964Z,80.30
2023-02-27T08:40:10.495Z,79.60
2023-02-27T08:50:10.243Z,78.90
2023-02-27T09:00:09.897Z,78.40
2023-02-27T09:10:09.217Z,77.60
2023-02-27T09:20:09.136Z,74.80
2023-02-27T09:30:08.541Z,73.10
2023-02-27T09:40:08.337Z,72.70
2023-02-27T09:50:07.101Z,72.30
2023-02-27T10:00:07.773Z,71.00
2023-02-27T10:10:07.186Z,71.30
2023-02-27T10:20:05.889Z,71.80
2023-02-27T10:30:05.376Z,71.70
2023-02-27T10:40:04.213Z,71.40
2023-02-27T10:50:02.981Z,67.50
2023-02-27T11:00:04.141Z,67.60
2023-02-27T11:10:03.023Z,66.90
2023-02-27T11:20:01.945Z,65.70
2023-02-27T11:30:01.318Z,65.80
2023-02-27T11:39:59.936Z,65.40
2023-02-27T11:49:59.003Z,63.70
2023-02-27T11:59:58.036Z,64.60
2023-02-27T12:09:57.267Z,64.40
2023-02-27T12:19:56.002Z,64.20
2023-02-27T12:29:55.076Z,63.70
2023-02-27T12:39:54.021Z,63.20
2023-02-27T12:49:53.146Z,63.30
2023-02-27T12:59:52.446Z,61.90
2023-02-27T13:09:51.033Z,62.10
2023-02-27T13:19:50.062Z,60.20
2023-02-27T13:29:49.128Z,59.40
2023-02-27T13:39:49.531Z,58.10
2023-02-27T13:49:48.252Z,58.40
2023-02-27T13:59:48.983Z,58.00
2023-02-27T14:09:48.065Z,57.60
2023-02-27T14:19:47.932Z,56.30
2023-02-27T14:29:47.694Z,54.80
2023-02-27T14:39:47.073Z,54.90
2023-02-27T14:49:46.385Z,54.10
2023-02-27T14:59:45.269Z,53.50
2023-02-27T15:09:44.323Z,54.60
2023-02-27T15:19:43.064Z,53.10
2023-02-27T15:29:42.425Z,54.50
2023-02-27T15:39:41.042Z,53.80
2023-02-27T15:49:40.295Z,53.80
2023-02-27T15:59:39.037Z,55.20
2023-02-27T16:09:38.563Z,54.60
2023-02-27T16:19:37.091Z,55.30
2023-02-27T16:29:36.075Z,55.90
2023-02-27T16:39:35.333Z,56.80
2023-02-27T16:49:34.153Z,57.50
2023-02-27T16:59:33.379Z,58.10
2023-02-27T17:09:32.261Z,58.70
2023-02-27T17:19:31.211Z,59.10
2023-02-27T17:29:30.181Z,59.70
2023-02-27T17:39:29.403Z,60.30
2023-02-27T17:49:28.238Z,60.80
2023-02-27T17:59:27.239Z,61.00
2023-02-27T18:09:26.626Z,61.30
2023-02-27T18:19:26.524Z,61.30
2023-02-27T18:29:25.230Z,61.50
2023-02-27T18:39:24.249Z,62.20
2023-02-27T18:49:23.373Z,62.80
2023-02-27T18:59:22.386Z,63.00
2023-02-27T19:09:22.183Z,63.40
2023-02-27T19:19:21.275Z,63.60
2023-02-27T19:29:20.486Z,63.70
2023-02-27T19:39:19.362Z,63.40
2023-02-27T19:49:18.557Z,63.50
2023-02-27T19:59:17.933Z,63.90
2023-02-27T20:09:17.349Z,64.10
2023-02-27T20:19:16.374Z,64.60
2023-02-27T20:29:15.222Z,65.00
2023-02-27T20:39:14.280Z,65.30
2023-02-27T20:49:15.335Z,65.40
2023-02-27T20:59:14.444Z,65.50
2023-02-27T21:09:13.489Z,65.40
2023-02-27T21:19:12.310Z,65.70
2023-02-27T21:29:11.353Z,65.80
2023-02-27T21:39:10.903Z,66.00
2023-02-27T21:49:10.350Z,66.20
2023-02-27T21:59:12.595Z,66.40
2023-02-27T22:09:11.447Z,66.50
2023-02-27T22:19:13.464Z,67.10
2023-02-27T22:29:12.407Z,68.00
2023-02-27T22:39:11.448Z,68.20
2023-02-27T22:49:10.592Z,68.10
2023-02-27T22:59:09.334Z,67.90
2023-02-27T23:09:08.495Z,67.80
2023-02-27T23:19:07.533Z,67.50
2023-02-27T23:29:06.567Z,67.50
2023-02-27T23:39:08.493Z,67.30
2023-02-27T23:49:08.334Z,67.70
2023-02-27T23:59:07.335Z,68.00
